Weather at Chipinge Airport

Public forecast

Using degrees Celsius for public forecast. Weather courtesy of forecast.io.

Closest aviation weather report (METAR) to Chipinge Airport

Report is more than 6 hours old.

Closest report is Chimoio Airport, 77.9 nm (144.2 km) NE.

2022/11/14 14:00 (retrieved 2 years ago)

FQCH 141400Z /////KT 8000 -RA BKN008 OVC015 FEW020CB 20/20 Q1019 RMK CB TO SE/SW

Closest aviation forecast (TAF) to Chipinge Airport

Forecast is more than 12 hours old.

Closest forecast is Chimoio Airport, 77.9 nm (144.2 km) NE.

2023/02/22 18:00 (retrieved 1 year ago)

TAF FQCH 221600Z 2218/2318 24008KT 9999 SCT018 FEW025CB TX25/2313Z TN19/2303Z PROB30 TEMPO 2220/2302 4000 TSRA FEW020CB BECMG 2306/2308 17010KT BECMG 2315/2317 28008KT